ブエノスアイレス/エセイサ の空港の天気 - METARとTAF

エセイサ国際空港 ( SAEZ / EZE ) - アルゼンチン ブエノスアイレス州、Ezeiza
飛行場実況気象(Metar)
観測時間04/27 01:00 ART (04/27 04:00 UTC)
風向・風速東 3m/s
視程10km以上
天気現象
なし
気温23℃
湿度94%
気圧1011hPa
METARSAEZ 270400Z 08006KT CAVOK 23/22 Q1011 NOSIG
過去の天気等 Google飛行場航空写真 Wunderground天気予報

過去48時間のMETAR

飛行場予報(TAF)
発表時間: 4/26 20:00 ART (4/26 23:00 UTC)
予報対象時間: 26日21時 ART ~ 27日21時 ART
風向・風速北東 3m/s
視程10km以上
なし
26日22時 ART ~ 26日24時 ART に徐々に
視程5,000m
天気現象もや 霧雨
全天の8割程度の雲 雲底高度 610m
全天の8割程度の雲 雲底高度 1,520m
全天を覆う雲 雲底高度 3,050m
27日14時 ART ~ 27日16時 ART に徐々に
風向・風速南南東 4m/s
視程5,000m
天気現象
全天の8割程度の雲 雲底高度 610m
全天を覆う雲 雲底高度 1,520m
TAF COR SAEZ 262300Z 2700/2724 05005KT CAVOK TX26/2718Z TN19/2710Z
BECMG 2701/2703 5000 BR DZ BKN020 BKN050 OVC100
BECMG 0911 30010KT 3000 TSRA BKN015 BKN040 FEW045CB OVC100
BECMG 2717/2719 15008KT 5000 RA BKN020 OVC050